createdAt,value
2018-09-11T00:02:11.324Z,1.90
2018-09-11T00:04:39.569Z,2.00
2018-09-11T00:07:07.826Z,2.17
2018-09-11T00:09:36.093Z,1.90
2018-09-11T00:12:04.441Z,1.90
2018-09-11T00:14:32.882Z,2.03
2018-09-11T00:17:01.181Z,2.23
2018-09-11T00:19:29.515Z,1.87
2018-09-11T00:21:57.806Z,1.60
2018-09-11T00:27:26.685Z,2.10
2018-09-11T00:29:54.930Z,2.27
2018-09-11T00:32:23.160Z,2.57
2018-09-11T00:34:51.417Z,2.30
2018-09-11T00:37:19.713Z,2.27
2018-09-11T00:39:47.953Z,3.07
2018-09-11T00:42:16.284Z,2.60
2018-09-11T00:44:45.424Z,2.45
2018-09-11T00:47:13.693Z,2.63
2018-09-11T00:49:42.004Z,2.43
2018-09-11T00:52:10.233Z,2.70
2018-09-11T00:54:38.477Z,2.47
2018-09-11T00:57:06.694Z,2.60
2018-09-11T00:59:34.941Z,2.53
2018-09-11T01:02:03.201Z,2.70
2018-09-11T01:05:02.476Z,2.30
2018-09-11T01:07:33.507Z,2.70
2018-09-11T01:10:02.175Z,2.50
2018-09-11T01:12:30.632Z,3.17
2018-09-11T01:14:58.944Z,2.77
2018-09-11T01:17:27.172Z,2.70
2018-09-11T01:19:56.149Z,2.55
2018-09-11T01:22:24.612Z,2.70
2018-09-11T01:24:52.808Z,2.50
2018-09-11T01:27:21.153Z,2.53
2018-09-11T01:29:49.472Z,2.63
2018-09-11T01:32:17.722Z,2.60
2018-09-11T01:34:45.994Z,2.93
2018-09-11T01:37:14.250Z,2.93
2018-09-11T01:39:42.471Z,3.10
2018-09-11T01:42:10.757Z,2.97
2018-09-11T01:44:39.257Z,2.93
2018-09-11T01:47:07.541Z,2.80
2018-09-11T01:49:35.813Z,2.60
2018-09-11T01:52:04.131Z,2.87
2018-09-11T01:54:32.539Z,3.27
2018-09-11T01:57:00.799Z,3.17
2018-09-11T01:59:29.039Z,2.97
2018-09-11T02:01:57.314Z,2.93
2018-09-11T02:04:25.623Z,2.83
2018-09-11T02:06:53.993Z,2.70
2018-09-11T02:09:23.265Z,3.17
2018-09-11T02:11:51.518Z,2.87
2018-09-11T02:14:19.935Z,3.30
2018-09-11T02:16:48.176Z,3.33
2018-09-11T02:19:16.405Z,3.00
2018-09-11T02:21:44.694Z,3.53
2018-09-11T02:24:13.051Z,3.47
2018-09-11T02:26:41.329Z,3.30
2018-09-11T02:29:09.658Z,3.20
2018-09-11T02:31:37.984Z,3.53
2018-09-11T02:34:06.635Z,3.23
2018-09-11T02:36:34.939Z,3.33
2018-09-11T02:39:03.900Z,3.30
2018-09-11T02:41:32.166Z,3.70
2018-09-11T02:44:02.594Z,3.13
2018-09-11T02:46:30.890Z,3.53
2018-09-11T02:48:59.147Z,3.97
2018-09-11T02:51:27.471Z,3.30
2018-09-11T02:53:55.821Z,3.67
2018-09-11T02:56:24.096Z,3.80
2018-09-11T02:58:52.602Z,3.43
2018-09-11T03:01:20.903Z,3.60
2018-09-11T03:03:49.139Z,4.03
2018-09-11T03:06:17.460Z,3.10
2018-09-11T03:08:45.788Z,3.20
2018-09-11T03:11:14.072Z,4.13
2018-09-11T03:13:42.565Z,3.00
2018-09-11T03:16:10.866Z,3.23
2018-09-11T03:18:39.246Z,3.80
2018-09-11T03:21:07.533Z,3.23
2018-09-11T03:23:36.110Z,3.57
2018-09-11T03:26:04.815Z,3.17
2018-09-11T03:28:33.123Z,3.33
2018-09-11T03:31:01.364Z,3.33
2018-09-11T03:33:29.688Z,3.30
2018-09-11T03:35:58.076Z,3.57
2018-09-11T03:38:26.415Z,3.50
2018-09-11T03:40:54.736Z,3.00
2018-09-11T03:43:23.196Z,3.30
2018-09-11T03:45:51.472Z,3.00
2018-09-11T03:48:21.110Z,3.03
2018-09-11T03:50:50.491Z,3.27
2018-09-11T03:53:19.270Z,3.30
2018-09-11T03:55:47.919Z,3.83
2018-09-11T03:58:17.172Z,3.37
2018-09-11T04:00:45.427Z,3.87
2018-09-11T04:03:13.908Z,3.90
2018-09-11T04:05:42.208Z,3.90
2018-09-11T04:08:10.460Z,3.80
2018-09-11T04:10:38.730Z,3.83
2018-09-11T04:13:08.053Z,3.90
2018-09-11T04:15:36.326Z,4.17
2018-09-11T04:18:04.675Z,3.67
2018-09-11T04:20:32.974Z,4.20
2018-09-11T04:23:01.313Z,3.67
2018-09-11T04:25:29.627Z,3.70
2018-09-11T04:27:57.862Z,3.43
2018-09-11T04:30:26.160Z,3.80
2018-09-11T04:32:54.615Z,3.90
2018-09-11T04:35:22.846Z,4.10
2018-09-11T04:37:51.095Z,3.60
2018-09-11T04:40:19.411Z,3.50
2018-09-11T04:42:47.715Z,4.23
2018-09-11T04:45:15.977Z,3.97
2018-09-11T04:47:44.449Z,4.00
2018-09-11T04:50:13.954Z,3.53
2018-09-11T04:52:42.318Z,3.87
2018-09-11T04:55:10.638Z,4.67
2018-09-11T04:57:38.895Z,4.17
2018-09-11T05:00:07.290Z,4.23
2018-09-11T05:02:35.569Z,4.20
2018-09-11T05:05:03.873Z,3.90
2018-09-11T05:07:32.363Z,4.23
2018-09-11T05:10:01.035Z,3.93
2018-09-11T05:12:29.298Z,4.08
2018-09-11T05:14:57.549Z,4.57
2018-09-11T05:17:25.897Z,4.20
2018-09-11T05:19:54.248Z,4.27
2018-09-11T05:22:22.589Z,4.50
2018-09-11T05:24:50.838Z,5.20
2018-09-11T05:27:19.098Z,3.90
2018-09-11T05:29:47.422Z,4.40
2018-09-11T05:32:15.844Z,5.47
2018-09-11T05:34:44.199Z,4.80
2018-09-11T05:37:12.462Z,4.30
2018-09-11T05:39:40.858Z,4.23
2018-09-11T05:42:09.085Z,4.40
2018-09-11T05:44:37.488Z,5.30
2018-09-11T05:47:05.768Z,4.53
2018-09-11T05:49:34.078Z,4.37
2018-09-11T05:52:02.416Z,4.40
2018-09-11T05:54:30.849Z,4.50
2018-09-11T05:56:59.195Z,4.50
2018-09-11T05:59:27.458Z,4.77
2018-09-11T06:01:55.749Z,3.87
2018-09-11T06:04:25.210Z,5.17
2018-09-11T06:06:53.798Z,4.03
2018-09-11T06:09:22.098Z,4.43
2018-09-11T06:11:50.383Z,4.17
2018-09-11T06:14:19.947Z,4.60
2018-09-11T06:16:48.214Z,4.60
2018-09-11T06:19:16.488Z,4.30
2018-09-11T06:21:44.821Z,4.30
2018-09-11T06:24:13.220Z,4.67
2018-09-11T06:26:41.446Z,5.00
2018-09-11T06:29:09.725Z,5.23
2018-09-11T06:31:38.072Z,5.27
2018-09-11T06:34:06.547Z,4.57
2018-09-11T06:36:34.899Z,4.43
2018-09-11T06:39:05.399Z,5.00
2018-09-11T06:41:33.691Z,4.57
2018-09-11T06:44:03.100Z,5.10
2018-09-11T06:46:31.559Z,5.50
2018-09-11T06:48:59.823Z,4.57
2018-09-11T06:51:28.210Z,5.57
2018-09-11T06:53:56.640Z,5.00
2018-09-11T06:56:25.095Z,4.83
2018-09-11T06:58:53.420Z,5.07
2018-09-11T07:01:21.699Z,5.27
2018-09-11T07:03:50.333Z,4.75
2018-09-11T07:06:18.961Z,5.27
2018-09-11T07:08:48.030Z,5.58
2018-09-11T07:11:16.347Z,5.07
2018-09-11T07:13:44.846Z,5.53
2018-09-11T07:16:13.136Z,4.80
2018-09-11T07:18:41.407Z,4.97
2018-09-11T07:21:09.736Z,5.23
2018-09-11T07:23:39.017Z,4.60
2018-09-11T07:26:07.320Z,4.70
2018-09-11T07:28:35.554Z,4.90
2018-09-11T07:31:03.886Z,4.80
2018-09-11T07:33:32.399Z,4.53
2018-09-11T07:36:01.660Z,4.33
2018-09-11T07:38:30.001Z,4.10
2018-09-11T07:40:58.380Z,4.60
2018-09-11T07:43:26.907Z,4.30
2018-09-11T07:45:55.222Z,4.17
2018-09-11T07:48:23.510Z,4.30
2018-09-11T07:50:53.100Z,4.23
2018-09-11T07:53:21.504Z,3.77
2018-09-11T07:55:49.972Z,4.03
2018-09-11T07:58:18.300Z,4.33
2018-09-11T08:00:46.679Z,4.80
2018-09-11T08:03:15.111Z,3.83
2018-09-11T08:05:43.497Z,4.17
2018-09-11T08:08:11.764Z,3.67
2018-09-11T08:10:40.042Z,3.67
2018-09-11T08:13:08.424Z,3.60
2018-09-11T08:15:36.765Z,3.90
2018-09-11T08:18:05.340Z,3.70
2018-09-11T08:20:33.671Z,3.93
2018-09-11T08:23:02.095Z,4.10
2018-09-11T08:25:30.407Z,4.07
2018-09-11T08:27:58.666Z,4.37
2018-09-11T08:30:29.719Z,4.40
2018-09-11T08:32:58.209Z,3.40
2018-09-11T08:35:26.642Z,3.70
2018-09-11T08:37:55.014Z,3.80
2018-09-11T08:40:23.282Z,3.80
2018-09-11T08:42:52.590Z,3.33
2018-09-11T08:45:20.885Z,3.83
2018-09-11T08:47:49.137Z,3.80
2018-09-11T08:50:18.060Z,3.90
2018-09-11T08:52:46.626Z,3.67
2018-09-11T08:55:14.999Z,3.30
2018-09-11T08:57:43.230Z,4.00
2018-09-11T09:00:11.856Z,3.57
2018-09-11T09:02:40.427Z,3.53
2018-09-11T09:05:08.739Z,3.60
2018-09-11T09:07:37.007Z,2.97
2018-09-11T09:10:05.620Z,3.47
2018-09-11T09:12:33.898Z,2.87
2018-09-11T09:15:02.155Z,3.77
2018-09-11T09:17:30.406Z,3.50
2018-09-11T09:19:58.732Z,3.40
2018-09-11T09:22:27.034Z,3.60
2018-09-11T09:24:55.300Z,3.53
2018-09-11T09:27:23.664Z,2.97
2018-09-11T09:29:51.933Z,2.97
2018-09-11T09:32:20.217Z,2.90
2018-09-11T09:34:48.504Z,3.00
2018-09-11T09:37:16.871Z,2.80
2018-09-11T09:39:45.141Z,2.73
2018-09-11T09:42:13.428Z,2.70
2018-09-11T09:44:41.880Z,2.80
2018-09-11T09:47:10.198Z,2.70
2018-09-11T09:49:38.481Z,2.60
2018-09-11T09:52:06.734Z,3.00
2018-09-11T09:54:35.252Z,3.10
2018-09-11T09:57:03.549Z,2.83
2018-09-11T09:59:32.014Z,2.80
2018-09-11T10:02:09.541Z,2.70
2018-09-11T10:04:37.938Z,2.40
2018-09-11T10:07:06.224Z,2.80
2018-09-11T10:09:34.496Z,2.63
2018-09-11T10:12:02.821Z,3.40
2018-09-11T10:14:32.296Z,3.07
2018-09-11T10:17:00.655Z,2.93
2018-09-11T10:19:29.513Z,2.67
2018-09-11T10:21:58.484Z,2.98
2018-09-11T10:24:27.837Z,2.97
2018-09-11T10:26:56.169Z,2.40
2018-09-11T10:29:24.412Z,2.63
2018-09-11T10:31:52.685Z,2.63
2018-09-11T10:34:21.149Z,2.80
2018-09-11T10:36:49.431Z,2.73
2018-09-11T10:39:17.718Z,2.67
2018-09-11T10:41:45.952Z,3.40
2018-09-11T10:44:14.264Z,2.60
2018-09-11T10:46:42.508Z,2.60
2018-09-11T10:49:10.812Z,2.93
2018-09-11T10:51:39.393Z,2.97
2018-09-11T10:54:07.817Z,3.07
2018-09-11T10:59:38.335Z,2.90
2018-09-11T11:02:06.755Z,2.83
2018-09-11T11:04:35.091Z,2.57
2018-09-11T11:07:03.446Z,2.73
2018-09-11T11:09:31.722Z,3.10
2018-09-11T11:11:59.991Z,2.43
2018-09-11T11:14:28.397Z,2.97
2018-09-11T11:16:56.745Z,2.90
2018-09-11T11:19:25.103Z,2.83
2018-09-11T11:21:53.405Z,3.30
2018-09-11T11:24:21.879Z,3.00
2018-09-11T11:26:50.232Z,2.77
2018-09-11T11:29:18.587Z,2.70
2018-09-11T11:31:46.893Z,3.10
2018-09-11T11:34:15.456Z,2.87
2018-09-11T11:36:43.912Z,2.60
2018-09-11T11:39:12.613Z,2.47
2018-09-11T11:41:41.022Z,2.60
2018-09-11T11:44:09.639Z,2.97
2018-09-11T11:46:37.981Z,2.60
2018-09-11T11:49:06.734Z,2.87
2018-09-11T11:51:35.077Z,2.97
2018-09-11T11:54:03.560Z,3.20
2018-09-11T11:56:32.090Z,3.13
2018-09-11T11:59:00.903Z,2.70
2018-09-11T12:01:29.293Z,2.83
2018-09-11T12:03:57.572Z,2.93
2018-09-11T12:06:25.927Z,2.83
2018-09-11T12:08:54.693Z,2.87
2018-09-11T12:11:23.104Z,2.90
2018-09-11T12:13:51.519Z,3.07
2018-09-11T12:16:20.017Z,2.70
2018-09-11T12:18:48.365Z,2.40
2018-09-11T12:21:16.938Z,2.13
2018-09-11T12:23:46.313Z,2.33
2018-09-11T12:26:14.712Z,2.50
2018-09-11T12:28:42.944Z,2.63
2018-09-11T12:31:11.388Z,2.37
2018-09-11T12:33:39.925Z,2.40
2018-09-11T12:36:08.297Z,2.20
2018-09-11T12:38:36.622Z,2.20
2018-09-11T12:41:04.926Z,2.20
2018-09-11T12:43:33.330Z,2.13
2018-09-11T12:46:02.033Z,2.33
2018-09-11T12:48:30.398Z,2.50
2018-09-11T12:50:58.615Z,1.87
2018-09-11T12:53:26.969Z,2.40
2018-09-11T12:55:55.491Z,2.37
2018-09-11T12:58:23.916Z,2.40
2018-09-11T13:00:52.587Z,2.50
2018-09-11T13:03:21.970Z,2.20
2018-09-11T13:05:50.293Z,2.57
2018-09-11T13:08:18.676Z,2.20
2018-09-11T13:10:46.970Z,2.50
2018-09-11T13:13:15.458Z,2.20
2018-09-11T13:15:43.769Z,2.57
2018-09-11T13:18:12.069Z,2.40
2018-09-11T13:20:40.354Z,2.63
2018-09-11T13:23:08.819Z,2.60
2018-09-11T13:25:37.124Z,2.53
2018-09-11T13:28:05.582Z,2.40
2018-09-11T13:30:33.851Z,2.20
2018-09-11T13:33:02.228Z,2.70
2018-09-11T13:35:30.527Z,2.67
2018-09-11T13:37:58.996Z,2.63
2018-09-11T13:40:27.274Z,2.70
2018-09-11T13:42:55.773Z,2.47
2018-09-11T13:45:24.033Z,2.50
2018-09-11T13:47:52.329Z,2.37
2018-09-11T13:50:21.405Z,2.60
2018-09-11T13:52:49.931Z,2.70
2018-09-11T13:55:18.294Z,2.93
2018-09-11T13:57:46.613Z,2.63
2018-09-11T14:00:14.928Z,2.50
2018-09-11T14:02:43.388Z,2.87
2018-09-11T14:05:11.689Z,2.73
2018-09-11T14:07:39.990Z,2.80
2018-09-11T14:10:08.258Z,2.80
2018-09-11T14:12:36.747Z,2.93
2018-09-11T14:15:05.478Z,2.53
2018-09-11T14:17:33.802Z,3.13
2018-09-11T14:20:02.182Z,2.47
2018-09-11T14:22:30.626Z,2.50
2018-09-11T14:24:58.957Z,2.73
2018-09-11T14:27:27.259Z,2.80
2018-09-11T14:29:55.595Z,2.60
2018-09-11T14:32:24.075Z,3.23
2018-09-11T14:34:52.487Z,2.70
2018-09-11T14:37:20.775Z,2.97
2018-09-11T14:39:49.142Z,3.00
2018-09-11T14:42:17.496Z,3.37
2018-09-11T14:44:45.835Z,2.67
2018-09-11T14:47:14.173Z,2.70
2018-09-11T14:49:42.501Z,2.63
2018-09-11T14:52:10.906Z,2.93
2018-09-11T14:54:39.167Z,3.57
2018-09-11T14:57:07.383Z,3.00
2018-09-11T14:59:35.667Z,2.80
2018-09-11T15:02:03.975Z,2.70
2018-09-11T15:04:32.369Z,3.37
2018-09-11T15:07:00.629Z,3.70
2018-09-11T15:09:29.477Z,2.60
2018-09-11T15:11:58.560Z,2.73
2018-09-11T15:14:28.276Z,3.20
2018-09-11T15:16:57.774Z,3.00
2018-09-11T15:19:26.869Z,2.70
2018-09-11T15:21:55.553Z,3.13
2018-09-11T15:24:24.635Z,2.87
2018-09-11T15:26:53.992Z,2.67
2018-09-11T15:29:23.001Z,3.20
2018-09-11T15:31:51.839Z,3.13
2018-09-11T15:34:20.835Z,3.00
2018-09-11T15:36:49.717Z,2.93
2018-09-11T15:39:19.010Z,2.93
2018-09-11T15:41:48.037Z,3.13
2018-09-11T15:44:17.630Z,3.53
2018-09-11T15:46:46.048Z,3.30
2018-09-11T15:49:14.881Z,3.20
2018-09-11T15:51:43.142Z,3.13
2018-09-11T15:54:12.305Z,3.20
2018-09-11T15:56:40.613Z,3.10
2018-09-11T15:59:08.884Z,2.67
2018-09-11T16:01:37.576Z,3.37
2018-09-11T16:04:06.094Z,3.42
2018-09-11T16:06:34.433Z,3.23
2018-09-11T16:09:02.712Z,3.50
2018-09-11T16:11:31.081Z,3.50
2018-09-11T16:13:59.607Z,3.23
2018-09-11T16:16:27.951Z,3.27
2018-09-11T16:18:56.299Z,2.90
2018-09-11T16:21:24.571Z,3.40
2018-09-11T16:23:52.883Z,3.60
2018-09-11T16:26:21.152Z,3.43
2018-09-11T16:28:49.490Z,3.20
2018-09-11T16:31:17.839Z,3.27
2018-09-11T16:33:46.290Z,3.45
2018-09-11T16:36:14.604Z,3.33
2018-09-11T16:38:42.936Z,3.30
2018-09-11T16:41:11.263Z,3.40
2018-09-11T16:43:39.696Z,3.80
2018-09-11T16:46:08.023Z,3.23
2018-09-11T16:48:36.460Z,3.23
2018-09-11T16:51:04.832Z,3.03
2018-09-11T16:53:33.593Z,3.40
2018-09-11T16:56:01.987Z,2.90
2018-09-11T16:58:30.321Z,3.47
2018-09-11T17:00:58.604Z,3.50
2018-09-11T17:03:28.571Z,3.10
2018-09-11T17:05:56.862Z,3.60
2018-09-11T17:08:25.240Z,3.83
2018-09-11T17:10:53.564Z,3.43
2018-09-11T17:13:22.139Z,3.23
2018-09-11T17:15:50.495Z,3.00
2018-09-11T17:18:25.169Z,3.53
2018-09-11T17:20:53.718Z,3.43
2018-09-11T17:23:22.128Z,3.57
2018-09-11T17:25:50.407Z,3.30
2018-09-11T17:28:18.763Z,3.60
2018-09-11T17:30:47.133Z,3.60
2018-09-11T17:33:15.467Z,3.87
2018-09-11T17:35:43.935Z,3.70
2018-09-11T17:38:12.328Z,4.07
2018-09-11T17:40:40.832Z,3.50
2018-09-11T17:43:09.286Z,3.90
2018-09-11T17:45:37.686Z,3.73
2018-09-11T17:48:06.320Z,3.63
2018-09-11T17:50:34.899Z,4.10
2018-09-11T17:53:10.041Z,3.17
2018-09-11T17:55:39.044Z,3.40
2018-09-11T17:58:07.769Z,4.07
2018-09-11T18:00:36.358Z,3.77
2018-09-11T18:03:04.838Z,4.30
2018-09-11T18:05:33.102Z,3.50
2018-09-11T18:08:01.400Z,3.70
2018-09-11T18:10:29.812Z,4.33
2018-09-11T18:12:58.263Z,3.50
2018-09-11T18:15:26.603Z,3.97
2018-09-11T18:17:54.964Z,4.23
2018-09-11T18:20:23.260Z,3.62
2018-09-11T18:22:51.682Z,4.60
2018-09-11T18:25:19.967Z,3.70
2018-09-11T18:27:48.252Z,3.90
2018-09-11T18:30:17.479Z,4.05
2018-09-11T18:32:45.958Z,3.90
2018-09-11T18:35:14.238Z,4.00
2018-09-11T18:37:42.572Z,3.77
2018-09-11T18:40:10.943Z,4.03
2018-09-11T18:42:39.575Z,4.97
2018-09-11T18:45:07.811Z,3.40
2018-09-11T18:47:36.090Z,4.70
2018-09-11T18:50:04.498Z,3.73
2018-09-11T18:52:32.957Z,4.10
2018-09-11T18:55:01.302Z,5.07
2018-09-11T18:57:29.776Z,4.10
2018-09-11T18:59:58.047Z,4.13
2018-09-11T19:02:26.356Z,4.20
2018-09-11T19:04:54.663Z,4.00
2018-09-11T19:07:22.861Z,4.30
2018-09-11T19:09:51.216Z,3.70
2018-09-11T19:12:19.581Z,4.17
2018-09-11T19:14:47.856Z,3.90
2018-09-11T19:17:16.318Z,4.00
2018-09-11T19:19:44.742Z,3.95
2018-09-11T19:22:13.180Z,3.80
2018-09-11T19:24:41.551Z,4.33
2018-09-11T19:27:09.856Z,4.27
2018-09-11T19:29:38.302Z,4.07
2018-09-11T19:32:06.630Z,3.70
2018-09-11T19:34:35.140Z,4.53
2018-09-11T19:37:03.515Z,4.40
2018-09-11T19:39:31.779Z,4.40
2018-09-11T19:42:00.097Z,4.27
2018-09-11T19:44:28.571Z,5.30
2018-09-11T19:46:56.849Z,3.93
2018-09-11T19:49:25.129Z,4.90
2018-09-11T19:51:53.417Z,4.47
2018-09-11T19:54:21.851Z,4.17
2018-09-11T19:56:50.219Z,4.07
2018-09-11T19:59:20.142Z,5.20
2018-09-11T20:01:48.423Z,5.83
2018-09-11T20:04:16.771Z,6.73
2018-09-11T20:06:45.053Z,5.67
2018-09-11T20:09:13.364Z,5.90
2018-09-11T20:11:41.585Z,6.50
2018-09-11T20:14:09.960Z,6.70
2018-09-11T20:16:38.271Z,6.43
2018-09-11T20:19:07.044Z,6.50
2018-09-11T20:21:35.384Z,6.40
2018-09-11T20:24:03.844Z,6.77
2018-09-11T20:26:32.080Z,7.33
2018-09-11T20:29:00.340Z,7.22
2018-09-11T20:31:28.684Z,6.95
2018-09-11T20:33:57.371Z,7.63
2018-09-11T20:36:25.661Z,6.80
2018-09-11T20:38:54.131Z,7.27
2018-09-11T20:41:22.469Z,6.93
2018-09-11T20:43:51.240Z,6.77
2018-09-11T20:46:19.511Z,7.17
2018-09-11T20:48:47.810Z,6.93
2018-09-11T20:51:16.101Z,6.80
2018-09-11T20:53:46.421Z,7.07
2018-09-11T20:56:14.652Z,7.37
2018-09-11T20:58:42.948Z,6.90
2018-09-11T21:01:11.243Z,6.60
2018-09-11T21:04:42.365Z,6.37
2018-09-11T21:07:10.641Z,6.13
2018-09-11T21:09:38.965Z,6.13
2018-09-11T21:12:07.250Z,5.90
2018-09-11T21:14:35.685Z,6.53
2018-09-11T21:17:03.975Z,6.17
2018-09-11T21:19:32.248Z,5.33
2018-09-11T21:22:00.549Z,5.70
2018-09-11T21:24:28.962Z,5.70
2018-09-11T21:26:57.202Z,6.00
2018-09-11T21:29:25.566Z,5.70
2018-09-11T21:31:53.809Z,5.30
2018-09-11T21:34:22.064Z,5.63
2018-09-11T21:36:50.365Z,4.97
2018-09-11T21:39:18.580Z,5.43
2018-09-11T21:41:46.820Z,5.30
2018-09-11T21:44:15.241Z,5.07
2018-09-11T21:46:43.496Z,4.43
2018-09-11T21:49:11.790Z,4.83
2018-09-11T21:51:40.040Z,4.57
2018-09-11T21:54:08.536Z,4.33
2018-09-11T21:56:36.760Z,5.20
2018-09-11T21:59:05.034Z,5.03
2018-09-11T22:01:38.760Z,5.10
2018-09-11T22:04:07.009Z,4.60
2018-09-11T22:06:36.187Z,5.70
2018-09-11T22:09:06.216Z,5.13
2018-09-11T22:14:19.098Z,4.53
2018-09-11T22:16:47.469Z,4.87
2018-09-11T22:19:15.786Z,4.43
2018-09-11T22:21:44.172Z,4.97
2018-09-11T22:24:12.573Z,4.17
2018-09-11T22:26:40.941Z,4.60
2018-09-11T22:29:09.171Z,4.20
2018-09-11T22:31:37.459Z,4.50
2018-09-11T22:34:06.881Z,4.07
2018-09-11T22:36:35.500Z,5.05
2018-09-11T22:39:03.826Z,5.07
2018-09-11T22:41:32.105Z,4.70
2018-09-11T22:44:00.384Z,4.73
2018-09-11T22:46:28.638Z,4.80
2018-09-11T22:48:57.088Z,4.90
2018-09-11T22:51:25.476Z,4.80
2018-09-11T22:53:53.928Z,4.70
2018-09-11T22:56:22.244Z,4.90
2018-09-11T22:58:50.504Z,5.00
2018-09-11T23:01:18.773Z,5.10
2018-09-11T23:03:47.271Z,5.03
2018-09-11T23:06:15.504Z,5.10
2018-09-11T23:08:43.806Z,5.57
2018-09-11T23:11:12.053Z,4.80
2018-09-11T23:13:41.367Z,4.77
2018-09-11T23:16:09.658Z,6.00
2018-09-11T23:18:37.952Z,5.30
2018-09-11T23:21:06.420Z,5.23
2018-09-11T23:23:34.857Z,5.10
2018-09-11T23:26:03.102Z,5.07
2018-09-11T23:28:31.348Z,5.13
2018-09-11T23:30:59.617Z,5.03
2018-09-11T23:33:27.950Z,4.43
2018-09-11T23:35:56.200Z,5.17
2018-09-11T23:38:24.470Z,5.60
2018-09-11T23:40:52.717Z,4.37
2018-09-11T23:43:22.090Z,5.10
2018-09-11T23:45:50.354Z,5.10
2018-09-11T23:48:18.624Z,4.70
2018-09-11T23:50:46.951Z,5.30
2018-09-11T23:53:15.383Z,5.40
2018-09-11T23:55:43.667Z,5.10
2018-09-11T23:58:11.931Z,5.03
